createdAt,value
2019-03-20T00:00:17.768Z,12.90
2019-03-20T00:01:17.680Z,20.50
2019-03-20T00:02:17.680Z,12.70
2019-03-20T00:03:18.716Z,18.20
2019-03-20T00:04:18.822Z,16.70
2019-03-20T00:05:18.844Z,16.70
2019-03-20T00:06:18.629Z,16.40
2019-03-20T00:07:18.842Z,13.40
2019-03-20T00:08:19.364Z,13.60
2019-03-20T00:09:19.878Z,13.50
2019-03-20T00:10:19.490Z,14.00
2019-03-20T00:11:19.692Z,13.30
2019-03-20T00:12:19.797Z,11.90
2019-03-20T00:13:20.006Z,16.00
2019-03-20T00:14:20.326Z,13.90
2019-03-20T00:15:20.746Z,14.00
2019-03-20T00:16:20.845Z,14.70
2019-03-20T00:17:20.752Z,12.60
2019-03-20T00:18:21.678Z,14.80
2019-03-20T00:19:22.195Z,15.00
2019-03-20T00:20:22.217Z,11.40
2019-03-20T00:21:22.114Z,15.00
2019-03-20T00:22:22.319Z,10.00
2019-03-20T00:23:22.531Z,14.30
2019-03-20T00:24:22.946Z,12.90
2019-03-20T00:25:23.474Z,16.80
2019-03-20T00:26:23.274Z,11.20
2019-03-20T00:27:23.583Z,19.10
2019-03-20T00:28:24.099Z,12.20
2019-03-20T00:29:24.107Z,14.70
2019-03-20T00:30:23.917Z,12.40
2019-03-20T00:31:24.438Z,14.20
2019-03-20T00:32:24.130Z,13.80
2019-03-20T00:33:24.343Z,14.70
2019-03-20T00:34:24.977Z,15.60
2019-03-20T00:35:24.975Z,14.40
2019-03-20T00:36:25.483Z,19.70
2019-03-20T00:37:25.286Z,13.90
2019-03-20T00:38:25.497Z,14.30
2019-03-20T00:39:26.012Z,15.30
2019-03-20T00:40:25.823Z,13.80
2019-03-20T00:41:26.130Z,13.00
2019-03-20T00:42:26.342Z,12.60
2019-03-20T00:43:26.764Z,11.00
2019-03-20T00:44:26.866Z,14.80
2019-03-20T00:45:27.095Z,14.30
2019-03-20T00:46:27.187Z,14.90
2019-03-20T00:47:27.395Z,14.00
2019-03-20T00:48:27.626Z,11.40
2019-03-20T00:49:27.781Z,16.10
2019-03-20T00:50:28.340Z,13.70
2019-03-20T00:51:28.080Z,14.50
2019-03-20T01:01:29.584Z,16.90
2019-03-20T01:02:31.085Z,18.00
2019-03-20T01:03:31.600Z,19.90
2019-03-20T01:04:31.512Z,22.20
2019-03-20T01:05:31.932Z,19.60
2019-03-20T01:06:32.445Z,24.40
2019-03-20T01:07:32.351Z,24.40
2019-03-20T01:08:32.655Z,26.20
2019-03-20T01:09:33.079Z,23.90
2019-03-20T01:10:33.392Z,20.20
2019-03-20T01:11:33.707Z,21.30
2019-03-20T01:12:33.624Z,18.00
2019-03-20T01:13:33.858Z,18.40
2019-03-20T01:14:34.744Z,18.90
2019-03-20T01:15:35.263Z,18.10
2019-03-20T01:16:35.174Z,17.10
2019-03-20T01:17:35.477Z,14.70
2019-03-20T01:18:35.694Z,18.50
2019-03-20T01:19:36.308Z,20.50
2019-03-20T01:20:36.320Z,18.70
2019-03-20T01:21:36.115Z,22.60
2019-03-20T01:22:36.431Z,18.60
2019-03-20T01:23:36.726Z,19.50
2019-03-20T01:24:37.163Z,17.40
2019-03-20T01:25:37.270Z,21.70
2019-03-20T01:26:37.685Z,21.90
2019-03-20T01:27:38.009Z,19.40
2019-03-20T01:28:38.518Z,16.80
2019-03-20T01:29:38.528Z,17.60
2019-03-20T01:30:38.430Z,19.00
2019-03-20T01:31:38.801Z,17.20
2019-03-20T01:32:39.271Z,17.80
2019-03-20T01:33:39.474Z,19.20
2019-03-20T01:34:39.898Z,20.80
2019-03-20T01:35:40.188Z,18.00
2019-03-20T01:36:40.622Z,17.40
2019-03-20T01:37:41.148Z,16.30
2019-03-20T01:38:41.045Z,14.80
2019-03-20T01:39:41.461Z,17.40
2019-03-20T01:40:41.993Z,19.40
2019-03-20T01:41:41.990Z,14.30
2019-03-20T01:42:42.028Z,14.90
2019-03-20T01:43:42.517Z,14.00
2019-03-20T01:44:42.614Z,19.00
2019-03-20T01:45:43.039Z,14.40
2019-03-20T01:46:43.464Z,15.40
2019-03-20T01:47:43.969Z,16.60
2019-03-20T01:48:44.208Z,17.10
2019-03-20T01:49:44.597Z,19.30
2019-03-20T01:50:45.013Z,14.80
2019-03-20T01:51:45.443Z,16.70
2019-03-20T01:52:45.809Z,18.00
2019-03-20T01:53:46.260Z,17.60
2019-03-20T01:54:46.776Z,18.40
2019-03-20T01:55:47.421Z,23.30
2019-03-20T01:56:47.587Z,23.90
2019-03-20T01:57:47.615Z,23.50
2019-03-20T01:58:47.726Z,27.70
2019-03-20T01:59:47.731Z,23.70
2019-03-20T02:00:48.251Z,22.70
2019-03-20T02:01:48.166Z,20.20
2019-03-20T02:02:48.685Z,23.80
2019-03-20T02:03:48.680Z,27.40
2019-03-20T02:04:48.689Z,27.70
2019-03-20T02:05:48.601Z,28.80
2019-03-20T02:06:48.894Z,29.60
2019-03-20T02:07:49.328Z,28.90
2019-03-20T02:08:49.739Z,24.10
2019-03-20T02:09:50.257Z,28.30
2019-03-20T02:10:50.159Z,30.20
2019-03-20T02:11:50.474Z,23.70
2019-03-20T02:12:51.007Z,27.70
2019-03-20T02:13:50.894Z,20.80
2019-03-20T02:14:50.902Z,25.70
2019-03-20T02:15:51.422Z,24.30
2019-03-20T02:16:51.325Z,23.00
2019-03-20T02:17:51.384Z,23.00
2019-03-20T02:18:51.653Z,24.90
2019-03-20T02:19:51.883Z,21.40
2019-03-20T02:20:52.171Z,23.80
2019-03-20T02:21:52.487Z,22.70
2019-03-20T02:22:52.704Z,22.30
2019-03-20T02:23:53.010Z,22.20
2019-03-20T02:24:53.320Z,24.20
2019-03-20T02:25:53.738Z,25.70
2019-03-20T02:26:53.852Z,24.40
2019-03-20T02:27:54.390Z,22.80
2019-03-20T02:28:54.375Z,21.50
2019-03-20T02:29:54.788Z,18.40
2019-03-20T02:30:55.305Z,22.50
2019-03-20T02:31:55.212Z,20.70
2019-03-20T02:32:55.323Z,24.30
2019-03-20T02:34:55.753Z,21.20
2019-03-20T02:35:55.751Z,21.20
2019-03-20T02:36:56.697Z,24.20
2019-03-20T02:37:56.950Z,27.70
2019-03-20T02:38:57.324Z,21.40
2019-03-20T02:39:57.725Z,27.80
2019-03-20T02:40:58.038Z,26.70
2019-03-20T02:41:58.354Z,24.70
2019-03-20T02:42:58.665Z,29.10
2019-03-20T02:43:58.691Z,27.90
2019-03-20T02:44:59.189Z,31.20
2019-03-20T02:45:59.305Z,32.20
2019-03-20T02:46:59.208Z,23.20
2019-03-20T02:47:59.733Z,29.60
2019-03-20T02:48:59.541Z,25.30
2019-03-20T02:49:59.959Z,29.10
2019-03-20T02:51:00.464Z,27.60
2019-03-20T02:52:03.817Z,24.70
2019-03-20T02:53:01.291Z,27.10
2019-03-20T02:54:01.411Z,31.40
2019-03-20T02:55:01.097Z,28.60
2019-03-20T02:56:01.412Z,26.30
2019-03-20T02:57:01.947Z,26.60
2019-03-20T02:58:02.042Z,23.60
2019-03-20T02:59:02.052Z,22.50
2019-03-20T03:00:01.645Z,21.90
2019-03-20T03:01:02.159Z,25.70
2019-03-20T03:02:01.971Z,22.50
2019-03-20T03:03:02.408Z,23.10
2019-03-20T03:04:02.709Z,24.00
2019-03-20T03:05:03.213Z,23.10
2019-03-20T03:06:07.062Z,23.00
2019-03-20T03:07:03.944Z,22.10
2019-03-20T03:08:04.366Z,24.00
2019-03-20T03:09:04.488Z,20.80
2019-03-20T03:10:05.088Z,22.80
2019-03-20T03:11:05.072Z,22.90
2019-03-20T03:12:05.515Z,20.10
2019-03-20T03:13:05.995Z,22.50
2019-03-20T03:14:06.157Z,18.40
2019-03-20T03:15:06.353Z,18.80
2019-03-20T03:16:06.635Z,19.70
2019-03-20T03:17:07.075Z,22.30
2019-03-20T03:18:07.189Z,16.90
2019-03-20T03:19:07.725Z,20.20
2019-03-20T03:20:07.816Z,20.80
2019-03-20T03:21:07.820Z,24.60
2019-03-20T03:22:07.826Z,25.50
2019-03-20T03:23:08.043Z,19.00
2019-03-20T03:24:08.558Z,20.10
2019-03-20T03:25:08.198Z,20.70
2019-03-20T03:26:08.265Z,18.40
2019-03-20T03:27:08.474Z,22.00
2019-03-20T03:28:09.005Z,20.90
2019-03-20T03:29:08.699Z,21.40
2019-03-20T03:30:09.123Z,19.70
2019-03-20T03:31:09.426Z,20.50
2019-03-20T03:32:09.742Z,27.90
2019-03-20T03:33:10.265Z,20.00
2019-03-20T03:34:09.990Z,21.20
2019-03-20T03:35:16.100Z,20.20
2019-03-20T03:36:21.000Z,23.10
2019-03-20T03:37:11.097Z,22.20
2019-03-20T03:38:11.422Z,21.50
2019-03-20T03:39:11.726Z,22.00
2019-03-20T03:40:12.052Z,21.70
2019-03-20T03:41:12.252Z,24.50
2019-03-20T03:42:12.671Z,18.80
2019-03-20T03:43:13.494Z,17.70
2019-03-20T03:44:13.408Z,19.10
2019-03-20T03:45:13.728Z,18.80
2019-03-20T03:46:14.026Z,18.20
2019-03-20T03:47:14.585Z,18.80
2019-03-20T03:48:14.432Z,19.70
2019-03-20T03:49:14.967Z,21.90
2019-03-20T03:50:15.023Z,21.20
2019-03-20T03:51:14.981Z,22.80
2019-03-20T03:52:15.190Z,22.10
2019-03-20T03:53:15.310Z,21.20
2019-03-20T03:54:15.627Z,21.10
2019-03-20T03:55:16.148Z,20.90
2019-03-20T03:56:15.833Z,19.90
2019-03-20T03:57:16.046Z,22.10
2019-03-20T03:58:16.463Z,18.80
2019-03-20T03:59:16.989Z,18.60
2019-03-20T04:00:17.106Z,18.50
2019-03-20T04:02:16.902Z,16.70
2019-03-20T04:03:17.471Z,17.40
2019-03-20T04:04:17.135Z,21.70
2019-03-20T04:05:17.248Z,20.80
2019-03-20T04:06:17.492Z,17.60
2019-03-20T04:07:18.063Z,25.00
2019-03-20T04:08:17.651Z,17.90
2019-03-20T04:09:17.929Z,18.70
2019-03-20T04:11:18.400Z,17.80
2019-03-20T04:12:18.810Z,22.70
2019-03-20T04:13:19.016Z,19.60
2019-03-20T04:14:19.264Z,19.20
2019-03-20T04:15:19.554Z,20.20
2019-03-20T04:16:19.763Z,19.00
2019-03-20T04:17:20.286Z,21.30
2019-03-20T04:18:20.482Z,16.10
2019-03-20T04:19:20.925Z,17.00
2019-03-20T04:20:20.819Z,19.60
2019-03-20T04:21:20.755Z,19.30
2019-03-20T04:22:21.634Z,16.90
2019-03-20T04:23:22.148Z,17.20
2019-03-20T04:24:22.580Z,16.10
2019-03-20T04:25:22.998Z,18.30
2019-03-20T04:26:23.406Z,17.50
2019-03-20T04:27:23.714Z,17.00
2019-03-20T04:28:24.225Z,18.30
2019-03-20T04:29:24.554Z,16.50
2019-03-20T04:30:24.773Z,14.80
2019-03-20T04:31:24.874Z,18.70
2019-03-20T04:32:25.281Z,13.30
2019-03-20T04:33:25.699Z,17.50
2019-03-20T04:34:26.221Z,18.10
2019-03-20T04:35:29.617Z,15.40
2019-03-20T04:36:26.229Z,19.00
2019-03-20T04:37:26.545Z,19.00
2019-03-20T04:38:26.759Z,21.70
2019-03-20T04:39:26.973Z,17.50
2019-03-20T04:40:27.386Z,18.60
2019-03-20T04:41:27.283Z,22.00
2019-03-20T04:42:28.122Z,18.00
2019-03-20T04:44:28.331Z,21.40
2019-03-20T04:45:28.739Z,21.80
2019-03-20T04:46:28.764Z,20.80
2019-03-20T04:47:28.868Z,16.50
2019-03-20T04:48:29.387Z,20.70
2019-03-20T04:49:29.802Z,21.60
2019-03-20T04:50:29.707Z,22.60
2019-03-20T04:51:30.337Z,22.50
2019-03-20T04:52:30.336Z,19.60
2019-03-20T04:53:30.613Z,22.50
2019-03-20T04:54:30.877Z,24.50
2019-03-20T04:55:31.176Z,24.30
2019-03-20T04:56:31.651Z,20.20
2019-03-20T04:57:31.979Z,23.50
2019-03-20T04:58:32.287Z,30.00
2019-03-20T04:59:32.575Z,21.10
2019-03-20T05:00:32.743Z,19.90
2019-03-20T05:01:33.078Z,24.80
2019-03-20T05:02:33.376Z,23.00
2019-03-20T05:03:33.499Z,23.90
2019-03-20T05:04:33.602Z,22.50
2019-03-20T05:05:33.730Z,26.00
2019-03-20T05:06:33.958Z,22.10
2019-03-20T05:07:34.237Z,21.50
2019-03-20T05:08:34.313Z,24.40
2019-03-20T05:09:34.461Z,19.90
2019-03-20T05:11:34.561Z,20.00
2019-03-20T05:12:34.684Z,28.20
2019-03-20T05:13:34.831Z,22.50
2019-03-20T05:14:34.996Z,21.90
2019-03-20T05:15:39.697Z,27.10
2019-03-20T05:16:36.097Z,25.00
2019-03-20T05:17:35.245Z,25.80
2019-03-20T05:18:35.841Z,25.90
2019-03-20T05:19:36.290Z,32.00
2019-03-20T05:20:36.912Z,34.00
2019-03-20T05:21:36.625Z,34.60
2019-03-20T05:22:36.802Z,31.20
2019-03-20T05:23:37.032Z,34.00
2019-03-20T05:24:37.091Z,26.90
2019-03-20T05:25:37.441Z,30.80
2019-03-20T05:26:37.613Z,26.00
2019-03-20T05:27:37.788Z,24.70
2019-03-20T05:28:38.065Z,20.00
2019-03-20T05:29:38.253Z,21.70
2019-03-20T05:30:38.484Z,23.50
2019-03-20T05:31:38.805Z,25.80
2019-03-20T05:32:38.946Z,29.30
2019-03-20T05:33:39.169Z,34.40
2019-03-20T05:34:39.366Z,30.70
2019-03-20T05:35:39.530Z,28.90
2019-03-20T05:36:39.718Z,30.10
2019-03-20T05:37:39.915Z,35.00
2019-03-20T05:38:40.097Z,40.60
2019-03-20T05:39:40.250Z,38.40
2019-03-20T05:40:40.456Z,40.60
2019-03-20T05:41:40.647Z,44.90
2019-03-20T05:42:40.850Z,41.50
2019-03-20T05:43:41.036Z,43.90
2019-03-20T05:44:41.207Z,47.80
2019-03-20T05:45:41.409Z,44.60
2019-03-20T05:46:41.535Z,42.40
2019-03-20T05:47:41.771Z,39.30
2019-03-20T05:48:41.882Z,46.60
2019-03-20T05:49:42.069Z,40.90
2019-03-20T05:50:42.286Z,44.90
2019-03-20T05:51:42.051Z,43.80
2019-03-20T05:52:42.746Z,42.60
2019-03-20T05:53:42.934Z,42.20
2019-03-20T05:54:43.128Z,37.50
2019-03-20T05:55:43.337Z,41.10
2019-03-20T05:56:43.499Z,39.80
2019-03-20T05:57:43.686Z,37.10
2019-03-20T05:59:43.866Z,34.40
2019-03-20T06:00:43.961Z,35.50
2019-03-20T06:01:44.131Z,38.80
2019-03-20T06:02:44.277Z,29.90
2019-03-20T06:03:44.456Z,30.80
2019-03-20T06:04:44.714Z,33.90
2019-03-20T06:05:44.840Z,32.40
2019-03-20T06:06:45.080Z,25.20
2019-03-20T06:07:45.314Z,28.70
2019-03-20T06:08:45.642Z,32.30
2019-03-20T06:09:46.015Z,26.10
2019-03-20T06:10:46.394Z,25.30
2019-03-20T06:11:46.696Z,24.60
2019-03-20T06:12:47.063Z,24.00
2019-03-20T06:13:47.217Z,23.10
2019-03-20T06:14:47.361Z,25.10
2019-03-20T06:15:47.572Z,22.10
2019-03-20T06:16:47.742Z,24.60
2019-03-20T06:17:47.918Z,20.30
2019-03-20T06:18:48.049Z,19.60
2019-03-20T06:19:48.261Z,24.10
2019-03-20T06:20:48.444Z,27.10
2019-03-20T06:21:48.761Z,22.80
2019-03-20T06:22:48.927Z,19.90
2019-03-20T06:23:49.122Z,22.30
2019-03-20T06:24:49.341Z,22.30
2019-03-20T06:25:51.396Z,17.70
2019-03-20T06:26:49.648Z,23.30
2019-03-20T06:27:49.701Z,20.80
2019-03-20T06:28:49.810Z,15.90
2019-03-20T06:29:49.966Z,17.20
2019-03-20T06:30:50.241Z,14.70
2019-03-20T06:31:50.462Z,17.00
2019-03-20T06:32:50.728Z,17.00
2019-03-20T06:33:50.964Z,17.60
2019-03-20T06:34:51.241Z,22.90
2019-03-20T06:35:51.427Z,14.70
2019-03-20T06:36:51.670Z,14.30
2019-03-20T06:37:51.893Z,14.80
2019-03-20T06:38:52.084Z,15.00
2019-03-20T06:39:53.445Z,17.80
2019-03-20T06:40:52.655Z,15.30
2019-03-20T06:41:52.854Z,16.60
2019-03-20T06:42:55.266Z,16.20
2019-03-20T06:43:53.116Z,18.50
2019-03-20T06:44:53.341Z,11.10
2019-03-20T06:45:53.463Z,15.20
2019-03-20T06:46:53.630Z,16.60
2019-03-20T06:47:53.903Z,16.70
2019-03-20T06:48:54.104Z,15.50
2019-03-20T06:49:54.262Z,14.80
2019-03-20T06:50:54.487Z,14.90
2019-03-20T06:51:54.710Z,17.40
2019-03-20T06:52:54.949Z,13.60
2019-03-20T06:53:55.080Z,13.90
2019-03-20T06:54:55.263Z,15.80
2019-03-20T06:55:55.520Z,12.30
2019-03-20T06:56:55.633Z,12.10
2019-03-20T06:57:55.804Z,16.70
2019-03-20T06:58:55.950Z,17.20
2019-03-20T06:59:56.298Z,12.40
2019-03-20T07:00:56.350Z,14.50
2019-03-20T07:01:56.503Z,14.00
2019-03-20T07:02:56.688Z,14.80
2019-03-20T07:03:57.160Z,14.70
2019-03-20T07:04:57.102Z,12.50
2019-03-20T07:05:57.370Z,16.30
2019-03-20T07:06:57.547Z,12.50
2019-03-20T07:07:57.927Z,14.80
2019-03-20T07:08:58.076Z,14.90
2019-03-20T07:09:58.145Z,15.30
2019-03-20T07:10:58.451Z,17.40
2019-03-20T07:11:58.908Z,21.10
2019-03-20T07:12:59.049Z,18.20
2019-03-20T07:13:59.333Z,14.50
2019-03-20T07:14:59.473Z,19.30
2019-03-20T07:15:59.580Z,18.00
2019-03-20T07:16:59.759Z,20.50
2019-03-20T07:17:59.981Z,15.30
2019-03-20T07:19:00.075Z,12.70
2019-03-20T07:20:00.357Z,15.90
2019-03-20T07:21:00.743Z,16.10
2019-03-20T07:22:01.083Z,22.60
2019-03-20T07:23:01.443Z,18.60
2019-03-20T07:24:02.005Z,13.50
2019-03-20T07:25:01.838Z,16.40
2019-03-20T07:26:01.971Z,14.40
2019-03-20T07:27:02.256Z,11.40
2019-03-20T07:28:02.477Z,12.50
2019-03-20T07:29:02.770Z,13.10
2019-03-20T07:30:03.034Z,14.90
2019-03-20T07:31:14.278Z,14.40
2019-03-20T07:32:03.410Z,11.40
2019-03-20T07:33:03.600Z,12.70
2019-03-20T07:34:03.779Z,10.00
2019-03-20T07:35:03.920Z,15.30
2019-03-20T07:36:04.077Z,17.90
2019-03-20T07:37:04.274Z,19.60
2019-03-20T07:38:04.450Z,9.00
2019-03-20T07:39:04.559Z,12.20
2019-03-20T07:40:05.156Z,15.80
2019-03-20T07:41:05.352Z,11.20
2019-03-20T07:42:05.485Z,12.20
2019-03-20T07:43:09.130Z,9.30
2019-03-20T07:44:06.074Z,12.20
2019-03-20T07:45:06.263Z,14.30
2019-03-20T07:46:06.450Z,13.80
2019-03-20T07:47:06.731Z,10.30
2019-03-20T07:48:06.904Z,10.10
2019-03-20T07:49:07.125Z,12.50
2019-03-20T07:50:07.363Z,12.80
2019-03-20T07:51:07.576Z,13.80
2019-03-20T07:52:07.797Z,11.30
2019-03-20T07:53:08.049Z,10.60
2019-03-20T07:54:08.276Z,10.00
2019-03-20T07:55:08.478Z,11.40
2019-03-20T07:56:08.615Z,15.90
2019-03-20T07:57:08.851Z,11.80
2019-03-20T07:58:08.976Z,13.30
2019-03-20T07:59:09.177Z,9.40
2019-03-20T08:00:09.595Z,14.10
2019-03-20T08:01:09.403Z,9.40
2019-03-20T08:02:09.534Z,11.70
2019-03-20T08:03:09.755Z,11.80
2019-03-20T08:04:09.975Z,9.80
2019-03-20T08:05:10.205Z,14.20
2019-03-20T08:06:10.473Z,10.50
2019-03-20T08:07:10.746Z,10.00
2019-03-20T08:08:10.934Z,14.10
2019-03-20T08:09:11.140Z,11.90
2019-03-20T08:10:11.313Z,12.60
2019-03-20T08:11:11.516Z,10.10
2019-03-20T08:12:11.754Z,9.50
2019-03-20T08:13:12.003Z,13.40
2019-03-20T08:14:12.274Z,14.60
2019-03-20T08:15:12.351Z,11.70
2019-03-20T08:16:12.602Z,13.10
2019-03-20T08:17:12.842Z,11.60
2019-03-20T08:18:13.001Z,12.00
2019-03-20T08:19:13.091Z,11.50
2019-03-20T08:20:13.336Z,10.70
2019-03-20T08:21:13.563Z,19.00
2019-03-20T08:22:13.765Z,11.80
2019-03-20T08:23:13.937Z,13.30
2019-03-20T08:24:14.020Z,12.70
2019-03-20T08:25:14.320Z,12.40
2019-03-20T08:26:14.558Z,12.70
2019-03-20T08:27:14.912Z,12.60
2019-03-20T08:28:15.134Z,9.90
2019-03-20T08:29:15.443Z,11.30
2019-03-20T08:30:15.746Z,11.10
2019-03-20T08:31:15.994Z,15.10
2019-03-20T08:32:16.393Z,15.50
2019-03-20T08:33:16.764Z,12.60
2019-03-20T08:34:16.890Z,12.50
2019-03-20T08:35:17.456Z,15.60
2019-03-20T08:36:17.387Z,15.90
2019-03-20T08:37:17.616Z,12.60
2019-03-20T08:38:18.925Z,15.10
2019-03-20T08:39:18.116Z,15.50
2019-03-20T08:40:18.362Z,12.20
2019-03-20T08:41:18.472Z,10.40
2019-03-20T08:42:18.607Z,10.60
2019-03-20T08:43:18.832Z,11.30
2019-03-20T08:44:18.971Z,12.50
2019-03-20T08:45:19.069Z,12.80
2019-03-20T08:46:19.188Z,12.70
2019-03-20T08:47:19.201Z,11.20
2019-03-20T08:48:19.231Z,10.80
2019-03-20T08:49:19.303Z,11.90
2019-03-20T08:50:19.460Z,14.40
2019-03-20T08:51:19.580Z,12.90
2019-03-20T08:53:19.777Z,12.20
2019-03-20T08:54:19.935Z,13.10
2019-03-20T08:55:20.108Z,10.90
2019-03-20T08:56:20.276Z,13.30
2019-03-20T08:57:20.410Z,14.30
2019-03-20T08:58:20.553Z,11.00
2019-03-20T08:59:20.835Z,17.10
2019-03-20T09:00:20.956Z,10.70
2019-03-20T09:01:28.393Z,11.80
2019-03-20T09:02:21.317Z,13.10
2019-03-20T09:03:21.425Z,13.60
2019-03-20T09:04:21.586Z,12.90
2019-03-20T09:05:21.774Z,11.80
2019-03-20T09:06:22.072Z,9.90
2019-03-20T09:07:22.211Z,11.30
2019-03-20T09:08:29.319Z,14.10
2019-03-20T09:09:22.673Z,12.60
2019-03-20T09:10:22.883Z,12.40
2019-03-20T09:11:23.089Z,13.40
2019-03-20T09:12:23.309Z,11.20
2019-03-20T09:13:23.436Z,14.20
2019-03-20T09:14:23.563Z,11.40
2019-03-20T09:15:23.742Z,10.00
2019-03-20T09:16:23.858Z,11.90
2019-03-20T09:17:23.984Z,14.50
2019-03-20T09:18:24.245Z,13.60
2019-03-20T09:19:24.434Z,14.10
2019-03-20T09:20:24.650Z,12.80
2019-03-20T09:21:24.844Z,10.30
2019-03-20T09:22:25.072Z,9.90
2019-03-20T09:23:25.292Z,9.30
2019-03-20T09:24:25.526Z,9.60
2019-03-20T09:25:25.659Z,11.70
2019-03-20T09:26:25.889Z,10.60
2019-03-20T09:27:26.092Z,13.50
2019-03-20T09:28:26.271Z,10.30
2019-03-20T09:29:35.629Z,9.50
2019-03-20T09:30:26.529Z,11.80
2019-03-20T09:31:26.660Z,13.00
2019-03-20T09:32:26.821Z,9.70
2019-03-20T09:33:26.918Z,10.00
2019-03-20T09:34:27.071Z,10.10
2019-03-20T09:35:27.250Z,9.90
2019-03-20T09:36:27.394Z,11.70
2019-03-20T09:37:27.636Z,12.00
2019-03-20T09:38:27.815Z,12.40
2019-03-20T09:39:27.941Z,8.80
2019-03-20T09:40:28.155Z,12.80
2019-03-20T09:41:28.312Z,10.90
2019-03-20T09:42:28.519Z,9.80
2019-03-20T09:43:28.682Z,12.90
2019-03-20T09:44:28.875Z,10.50
2019-03-20T09:45:29.092Z,9.10
2019-03-20T09:46:29.356Z,12.70
2019-03-20T09:47:29.622Z,12.40
2019-03-20T09:48:29.888Z,12.90
2019-03-20T09:49:30.067Z,10.70
2019-03-20T09:50:30.277Z,10.30
2019-03-20T09:51:30.612Z,12.00
2019-03-20T09:52:30.876Z,10.40
2019-03-20T09:53:31.270Z,10.00
2019-03-20T09:54:31.561Z,10.60
2019-03-20T09:56:31.794Z,9.80
2019-03-20T09:57:32.206Z,10.00
2019-03-20T09:58:32.447Z,11.20
2019-03-20T09:59:32.698Z,11.00
2019-03-20T10:00:32.856Z,11.80
2019-03-20T10:01:33.087Z,11.20
2019-03-20T10:02:33.266Z,14.50
2019-03-20T10:03:33.377Z,8.50
2019-03-20T10:04:33.585Z,11.40
2019-03-20T10:05:33.737Z,11.00
2019-03-20T10:06:33.899Z,11.20
2019-03-20T10:07:34.024Z,11.00
2019-03-20T10:08:34.095Z,10.00
2019-03-20T10:09:34.217Z,8.10
2019-03-20T10:10:34.241Z,8.60
2019-03-20T10:11:34.425Z,9.20
2019-03-20T10:12:34.563Z,9.80
2019-03-20T10:13:34.634Z,10.30
2019-03-20T10:14:34.771Z,9.80
2019-03-20T10:15:34.927Z,8.50
2019-03-20T10:16:34.982Z,9.90
2019-03-20T10:17:35.084Z,10.50
2019-03-20T10:18:35.282Z,10.50
2019-03-20T10:19:35.436Z,10.70
2019-03-20T10:20:35.548Z,10.90
2019-03-20T10:21:35.771Z,13.60
2019-03-20T10:22:36.047Z,6.70
2019-03-20T10:23:36.305Z,8.40
2019-03-20T10:24:36.515Z,7.30
2019-03-20T10:25:44.597Z,7.70
2019-03-20T10:26:36.858Z,9.50
2019-03-20T10:27:37.023Z,8.70
2019-03-20T10:28:37.203Z,8.00
2019-03-20T10:30:37.349Z,9.60
2019-03-20T10:31:37.537Z,8.20
2019-03-20T10:32:37.752Z,6.20
2019-03-20T10:33:37.952Z,6.50
2019-03-20T10:34:39.713Z,6.30
2019-03-20T10:35:38.240Z,7.60
2019-03-20T10:36:38.402Z,6.50
2019-03-20T10:37:38.609Z,9.70
2019-03-20T10:38:38.936Z,8.20
2019-03-20T10:39:38.983Z,7.00
2019-03-20T10:40:39.211Z,7.00
2019-03-20T10:41:39.389Z,6.80
2019-03-20T10:42:39.587Z,7.00
2019-03-20T10:43:39.804Z,5.90
2019-03-20T10:44:39.969Z,7.60
2019-03-20T10:45:40.172Z,6.40
2019-03-20T10:46:40.421Z,8.00
2019-03-20T10:47:40.562Z,6.10
2019-03-20T10:48:40.753Z,7.40
2019-03-20T10:49:40.834Z,6.50
2019-03-20T10:50:41.072Z,7.30
2019-03-20T10:51:41.297Z,7.00
2019-03-20T10:52:41.442Z,5.60
2019-03-20T10:53:41.615Z,6.80
2019-03-20T10:54:41.821Z,4.40
2019-03-20T10:55:42.027Z,3.40
2019-03-20T10:56:42.289Z,5.80
2019-03-20T10:57:42.512Z,5.70
2019-03-20T10:58:42.690Z,6.80
2019-03-20T10:59:42.886Z,6.60
2019-03-20T11:00:43.116Z,3.60
2019-03-20T11:01:43.333Z,6.50
2019-03-20T11:02:43.516Z,7.40
2019-03-20T11:03:43.761Z,5.80
2019-03-20T11:04:43.933Z,5.40
2019-03-20T11:05:44.101Z,4.90
2019-03-20T11:06:44.296Z,4.90
2019-03-20T11:07:44.447Z,6.10
2019-03-20T11:08:44.639Z,6.00
2019-03-20T11:09:44.830Z,5.90
2019-03-20T11:10:45.022Z,5.40
2019-03-20T11:11:45.213Z,7.70
2019-03-20T11:12:45.307Z,6.60
2019-03-20T11:13:45.562Z,5.00
2019-03-20T11:14:45.784Z,6.60
2019-03-20T11:15:46.156Z,7.40
2019-03-20T11:16:46.487Z,4.60
2019-03-20T11:17:46.820Z,5.50
2019-03-20T11:18:48.540Z,6.10
2019-03-20T11:19:47.348Z,4.00
2019-03-20T11:20:47.504Z,5.30
2019-03-20T11:21:47.598Z,6.60
2019-03-20T11:22:47.856Z,7.30
2019-03-20T11:23:48.118Z,3.90
2019-03-20T11:24:48.241Z,3.50
2019-03-20T11:25:48.381Z,4.80
2019-03-20T11:26:48.483Z,4.70
2019-03-20T11:27:48.675Z,6.20
2019-03-20T11:28:48.836Z,6.40
2019-03-20T11:29:48.990Z,6.10
2019-03-20T11:30:49.148Z,4.90
2019-03-20T11:31:49.276Z,6.70
2019-03-20T11:32:49.381Z,6.50
2019-03-20T11:33:49.523Z,5.80
2019-03-20T11:34:49.663Z,4.80
2019-03-20T11:35:49.865Z,5.50
2019-03-20T11:36:50.043Z,5.60
2019-03-20T11:37:50.228Z,5.60
2019-03-20T11:38:50.443Z,5.40
2019-03-20T11:39:52.633Z,6.30
2019-03-20T11:40:50.775Z,5.70
2019-03-20T11:41:50.874Z,4.50
2019-03-20T11:42:51.154Z,4.40
2019-03-20T11:43:51.415Z,4.70
2019-03-20T11:44:51.704Z,5.20
2019-03-20T11:45:51.901Z,5.80
2019-03-20T11:46:52.057Z,7.80
2019-03-20T11:47:52.117Z,8.10
2019-03-20T11:48:52.317Z,7.80
2019-03-20T11:49:52.585Z,6.90
2019-03-20T11:50:53.002Z,3.70
2019-03-20T11:51:53.235Z,4.90
2019-03-20T11:52:53.543Z,5.20
2019-03-20T11:53:53.857Z,4.70
2019-03-20T11:54:53.981Z,7.30
2019-03-20T11:55:54.122Z,4.30
2019-03-20T11:56:54.317Z,6.00
2019-03-20T11:57:54.522Z,4.60
2019-03-20T11:58:54.738Z,4.60
2019-03-20T11:59:54.833Z,3.90
2019-03-20T12:00:55.118Z,6.30
2019-03-20T12:01:55.364Z,5.20
2019-03-20T12:02:55.557Z,4.60
2019-03-20T12:03:55.736Z,6.70
2019-03-20T12:04:55.886Z,4.40
2019-03-20T12:05:56.033Z,6.10
2019-03-20T12:06:56.258Z,5.10
2019-03-20T12:07:56.440Z,4.70
2019-03-20T12:09:23.207Z,4.40
2019-03-20T12:10:05.931Z,5.00
2019-03-20T12:10:58.543Z,5.20
2019-03-20T12:11:57.187Z,5.20
2019-03-20T12:12:57.453Z,5.00
2019-03-20T12:13:57.633Z,4.10
2019-03-20T12:14:57.864Z,4.50
2019-03-20T12:15:58.095Z,5.10
2019-03-20T12:16:58.254Z,9.00
2019-03-20T12:17:58.500Z,5.00
2019-03-20T12:18:58.599Z,4.10
2019-03-20T12:20:58.882Z,5.30
2019-03-20T12:21:58.973Z,4.30
2019-03-20T12:22:59.113Z,8.40
2019-03-20T12:23:59.277Z,4.50
2019-03-20T12:24:59.467Z,5.20
2019-03-20T12:25:59.773Z,5.50
2019-03-20T12:27:00.039Z,6.10
2019-03-20T12:28:00.139Z,3.70
2019-03-20T12:29:00.411Z,3.90
2019-03-20T12:30:00.663Z,7.30
2019-03-20T12:31:01.267Z,5.40
2019-03-20T12:32:01.652Z,5.60
2019-03-20T12:33:02.040Z,6.30
2019-03-20T12:34:02.566Z,4.80
2019-03-20T12:35:02.510Z,5.80
2019-03-20T12:36:02.895Z,5.30
2019-03-20T12:37:03.073Z,3.80
2019-03-20T12:38:13.604Z,4.40
2019-03-20T12:39:03.920Z,5.30
2019-03-20T12:40:04.017Z,5.90
2019-03-20T12:41:04.239Z,8.60
2019-03-20T12:42:04.374Z,4.40
2019-03-20T12:43:04.600Z,6.00
2019-03-20T12:44:04.579Z,4.00
2019-03-20T12:45:04.744Z,4.40
2019-03-20T12:46:05.204Z,5.10
2019-03-20T12:47:05.231Z,3.50
2019-03-20T12:48:05.390Z,5.00
2019-03-20T12:49:05.590Z,3.50
2019-03-20T12:50:05.795Z,3.90
2019-03-20T12:51:06.024Z,3.90
2019-03-20T12:52:06.230Z,6.30
2019-03-20T12:53:06.475Z,8.60
2019-03-20T12:54:06.697Z,5.40
2019-03-20T12:55:06.888Z,5.20
2019-03-20T12:56:07.512Z,6.60
2019-03-20T12:57:07.647Z,6.30
2019-03-20T12:58:08.223Z,6.40
2019-03-20T12:59:08.361Z,5.70
2019-03-20T13:00:08.683Z,4.00
2019-03-20T13:01:08.860Z,4.70
2019-03-20T13:02:08.966Z,3.60
2019-03-20T13:03:09.281Z,3.90
2019-03-20T13:04:09.545Z,4.90
2019-03-20T13:05:11.888Z,6.00
2019-03-20T13:06:09.948Z,5.50
2019-03-20T13:07:10.789Z,5.20
2019-03-20T13:08:10.382Z,5.90
2019-03-20T13:09:10.593Z,5.00
2019-03-20T13:10:10.802Z,5.70
2019-03-20T13:11:11.081Z,4.40
2019-03-20T13:12:11.243Z,4.00
2019-03-20T13:13:11.659Z,6.00
2019-03-20T13:14:11.489Z,4.80
2019-03-20T13:15:11.662Z,4.90
2019-03-20T13:16:11.922Z,5.70
2019-03-20T13:17:12.037Z,4.90
2019-03-20T13:18:12.399Z,4.70
2019-03-20T13:19:20.508Z,6.20
2019-03-20T13:20:12.732Z,4.60
2019-03-20T13:21:13.045Z,5.70